Airport Name : Pajala

Other Name : Pajala

ICAO : ESUP

IATA :

FAA :

Latitude : 67.245639

Longitude : 23.068911

Country : Sweden

Local Date and Time : 02 Jun 2020 17:10

 

TAF (Terminal Aerodrome Forecast)

 

METAR (METeorological Aerodrome Report)

ESUP 021450Z AUTO 29012KT 9999 // NCD 21/03 Q1014

ESUP 021420Z 31010KT 280V360 9999 NSC 22/03 Q1014

ESUP 021350Z AUTO 32010KT 270V010 9999 NCD 22/03 Q1014

ESUP 021320Z AUTO 30010KT 250V340 9999 NCD 23/05 Q1014

ESUP 021250Z AUTO 30012KT 9999 NCD 22/05 Q1014

ESUP 021220Z AUTO 28011KT 240V320 9999 // FEW048/// 22/06 Q1014

ESUP 021150Z AUTO 24008KT 190V280 9999 FEW070/// 23/07 Q1014

ESUP 021120Z AUTO 28006KT 250V330 9999 // SCT067/// BKN083/// 23/07 Q1014

To Charter a Jet Click here.